Time;durP1;ratioP1;P1;durP2;ratioP2;P2;SDS_P1;SDS_P2;PMS_P1;PMS_P2;Temp;Humidity;BMP_temperature;BMP_pressure;BME280_temperature;BME280_humidity;BME280_pressure;Samples;Min_cycle;Max_cycle;Signal;HPM_P1;HPM_P2
2023/09/24 00:01:15;;;;;;;6.75;2.33;;;9.60;99.90;;;;;;7303824;32;20131;-57
2023/09/24 00:05:17;;;;;;;4.95;2.47;;;9.60;99.90;;;;;;7314518;32;20124;-56
2023/09/24 00:09:19;;;;;;;3.70;2.37;;;9.50;99.90;;;;;;7316532;32;20138;-55
2023/09/24 00:13:22;;;;;;;3.15;2.30;;;9.40;99.90;;;;;;7303073;32;20167;-56
2023/09/24 00:17:24;;;;;;;6.57;2.62;;;9.40;99.90;;;;;;7302957;32;20116;-56
2023/09/24 00:21:26;;;;;;;3.62;2.30;;;9.40;99.90;;;;;;7304234;32;20312;-55
2023/09/24 00:25:28;;;;;;;7.07;2.53;;;9.40;99.90;;;;;;7310726;32;20132;-56
2023/09/24 00:29:30;;;;;;;5.70;2.22;;;9.40;99.90;;;;;;7299361;32;20186;-57
2023/09/24 00:33:32;;;;;;;5.28;2.92;;;9.20;99.90;;;;;;7302377;32;20200;-56
2023/09/24 00:37:34;;;;;;;5.32;2.67;;;9.20;99.90;;;;;;7302799;32;20433;-57
2023/09/24 00:41:36;;;;;;;4.70;2.60;;;9.10;99.90;;;;;;7303011;32;20213;-56
2023/09/24 00:45:38;;;;;;;5.65;2.62;;;9.00;99.90;;;;;;7304262;32;20162;-55
2023/09/24 00:49:42;;;;;;;6.82;2.33;;;9.00;99.90;;;;;;7305279;32;20332;-57
2023/09/24 00:53:46;;;;;;;3.60;2.47;;;9.10;99.90;;;;;;7304524;32;20143;-56
2023/09/24 00:57:50;;;;;;;5.00;2.70;;;9.00;99.90;;;;;;7305542;32;20489;-55
2023/09/24 01:01:52;;;;;;;3.58;2.47;;;8.90;99.90;;;;;;7301340;32;20227;-55
2023/09/24 01:05:54;;;;;;;5.95;2.55;;;8.90;99.90;;;;;;7302166;32;20214;-56
2023/09/24 01:09:56;;;;;;;4.65;2.92;;;8.90;99.90;;;;;;7302769;32;20141;-56
2023/09/24 01:13:58;;;;;;;7.72;2.92;;;8.80;99.90;;;;;;7304575;32;20131;-56
2023/09/24 01:18:02;;;;;;;4.80;2.50;;;8.70;99.90;;;;;;7308876;32;20096;-56
2023/09/24 01:22:05;;;;;;;3.83;2.50;;;8.70;99.90;;;;;;7302627;32;20116;-56
2023/09/24 01:26:10;;;;;;;4.45;2.58;;;8.70;99.90;;;;;;7301243;32;20119;-55
2023/09/24 01:30:15;;;;;;;5.30;2.87;;;8.60;99.90;;;;;;7306035;32;20131;-56
2023/09/24 01:34:18;;;;;;;6.97;2.90;;;8.60;99.90;;;;;;7300714;32;20260;-55
2023/09/24 01:38:20;;;;;;;3.85;2.53;;;8.60;99.90;;;;;;7286378;32;20617;-55
2023/09/24 01:42:23;;;;;;;3.97;2.58;;;8.60;99.90;;;;;;7301446;32;20176;-57
2023/09/24 01:46:24;;;;;;;3.97;2.30;;;8.60;99.90;;;;;;7301542;32;20109;-56
2023/09/24 01:50:29;;;;;;;3.55;2.20;;;8.50;99.90;;;;;;7288363;32;20184;-56
2023/09/24 01:54:30;;;;;;;4.95;2.58;;;8.60;99.90;;;;;;7306335;32;20112;-57
2023/09/24 01:58:32;;;;;;;4.95;2.60;;;8.50;99.90;;;;;;7299950;32;20242;-56
2023/09/24 02:02:34;;;;;;;5.82;2.53;;;8.50;99.90;;;;;;7298297;32;20172;-58
2023/09/24 02:06:36;;;;;;;5.80;2.42;;;8.40;99.90;;;;;;7300934;32;20568;-56
2023/09/24 02:10:40;;;;;;;7.85;2.15;;;8.40;99.90;;;;;;7264467;32;20108;-55
2023/09/24 02:14:42;;;;;;;5.82;2.70;;;8.30;99.90;;;;;;7305669;32;20131;-55
2023/09/24 02:18:44;;;;;;;4.53;2.40;;;8.30;99.90;;;;;;7301475;32;20124;-55
2023/09/24 02:22:46;;;;;;;4.78;2.47;;;8.30;99.90;;;;;;7297626;32;20484;-56
2023/09/24 02:26:48;;;;;;;3.35;2.22;;;8.30;99.90;;;;;;7303186;32;20138;-56
2023/09/24 02:30:50;;;;;;;4.75;2.40;;;8.20;99.90;;;;;;7304593;32;20309;-55
2023/09/24 02:34:52;;;;;;;4.12;2.65;;;8.20;99.90;;;;;;7295418;32;20120;-57
2023/09/24 02:38:56;;;;;;;3.25;2.45;;;8.20;99.90;;;;;;7301224;32;20230;-55
2023/09/24 02:42:59;;;;;;;4.15;2.35;;;8.20;99.90;;;;;;7301220;32;20183;-55
2023/09/24 02:47:04;;;;;;;4.87;2.50;;;8.10;99.90;;;;;;7291845;32;20124;-55
2023/09/24 02:51:08;;;;;;;7.18;2.75;;;8.10;99.90;;;;;;7305780;32;20556;-56
2023/09/24 02:55:13;;;;;;;3.35;2.42;;;8.00;99.90;;;;;;7304501;32;20141;-56
2023/09/24 02:59:15;;;;;;;9.93;2.95;;;8.00;99.90;;;;;;7307462;32;20112;-57
2023/09/24 03:03:17;;;;;;;5.80;2.60;;;8.00;99.90;;;;;;7305256;32;20175;-55
2023/09/24 03:07:19;;;;;;;3.33;2.65;;;8.00;99.90;;;;;;7307087;32;20111;-56
2023/09/24 03:11:21;;;;;;;5.60;2.67;;;8.00;99.90;;;;;;7305740;32;20253;-56
2023/09/24 03:15:26;;;;;;;3.67;2.40;;;8.00;99.90;;;;;;7304688;32;20230;-55
2023/09/24 03:19:28;;;;;;;4.12;2.60;;;8.00;99.90;;;;;;7308275;32;20143;-55
2023/09/24 03:23:30;;;;;;;3.75;2.70;;;8.00;99.90;;;;;;7299000;32;20093;-55
2023/09/24 03:27:32;;;;;;;5.15;2.83;;;8.00;99.90;;;;;;7307368;32;20485;-55
2023/09/24 03:31:33;;;;;;;3.42;2.60;;;8.00;99.90;;;;;;7305520;32;20164;-55
2023/09/24 03:35:35;;;;;;;5.10;2.53;;;8.00;99.90;;;;;;7303701;32;20173;-56
2023/09/24 03:39:38;;;;;;;4.65;3.05;;;8.00;99.90;;;;;;7304995;32;20120;-56
2023/09/24 03:43:42;;;;;;;5.72;2.80;;;8.00;99.90;;;;;;7303335;32;20168;-55
2023/09/24 03:47:45;;;;;;;4.90;2.87;;;8.00;99.90;;;;;;7302298;32;20550;-55
2023/09/24 03:51:47;;;;;;;6.70;3.17;;;7.90;99.90;;;;;;7303336;32;20116;-55
2023/09/24 03:55:49;;;;;;;4.47;2.92;;;7.90;99.90;;;;;;7308347;32;20143;-55
2023/09/24 03:59:51;;;;;;;4.45;2.72;;;7.90;99.90;;;;;;7303683;32;20143;-55
2023/09/24 04:03:52;;;;;;;7.07;3.20;;;7.90;99.90;;;;;;7308437;32;20293;-56
2023/09/24 04:07:55;;;;;;;5.32;3.22;;;7.90;99.90;;;;;;7291225;32;20118;-56
2023/09/24 04:11:57;;;;;;;6.57;3.17;;;7.90;99.90;;;;;;7310574;32;20139;-56
2023/09/24 04:16:12;;;;;;;5.90;3.08;;;7.90;99.90;;;;;;7303840;32;20184;-56
2023/09/24 04:20:15;;;;;;;4.87;3.25;;;7.90;99.90;;;;;;7297782;32;20199;-57
2023/09/24 04:24:16;;;;;;;5.90;2.72;;;7.90;99.90;;;;;;7304940;32;20135;-56
2023/09/24 04:28:19;;;;;;;5.55;3.05;;;8.00;99.90;;;;;;7302057;32;20163;-56
2023/09/24 04:32:21;;;;;;;8.90;2.65;;;7.90;99.90;;;;;;7303213;32;20544;-56
2023/09/24 04:36:23;;;;;;;6.55;2.97;;;7.90;99.90;;;;;;7312773;32;20576;-56
2023/09/24 04:40:26;;;;;;;6.53;3.30;;;8.00;99.90;;;;;;7304638;32;20112;-58
2023/09/24 04:44:28;;;;;;;6.47;3.20;;;7.90;99.90;;;;;;7301474;32;20643;-56
2023/09/24 04:48:31;;;;;;;6.30;3.08;;;8.00;99.90;;;;;;7302322;32;20115;-56
2023/09/24 04:52:34;;;;;;;6.57;3.15;;;8.00;99.90;;;;;;7300685;32;20893;-55
2023/09/24 04:56:35;;;;;;;5.55;3.00;;;8.00;99.90;;;;;;7299348;32;20209;-56
2023/09/24 05:00:38;;;;;;;6.53;3.12;;;8.00;99.90;;;;;;7298742;32;20097;-55
2023/09/24 05:04:39;;;;;;;4.65;2.92;;;8.00;99.90;;;;;;7284116;32;20127;-56
2023/09/24 05:08:42;;;;;;;3.35;2.70;;;8.00;99.90;;;;;;7287128;32;20109;-55
2023/09/24 05:12:44;;;;;;;6.00;2.95;;;8.00;99.90;;;;;;7305128;32;20104;-55
2023/09/24 05:16:47;;;;;;;5.25;2.78;;;8.00;99.90;;;;;;7299015;32;20180;-55
2023/09/24 05:20:49;;;;;;;7.93;2.97;;;8.00;99.90;;;;;;7304865;32;20450;-56
2023/09/24 05:24:51;;;;;;;4.22;2.75;;;8.10;99.90;;;;;;7300008;32;20131;-55
2023/09/24 05:28:53;;;;;;;6.97;3.28;;;8.10;99.90;;;;;;7302158;32;20526;-55
2023/09/24 05:32:54;;;;;;;6.72;2.80;;;8.20;99.90;;;;;;7297338;32;20169;-56
2023/09/24 05:36:56;;;;;;;5.53;3.08;;;8.30;99.90;;;;;;7298092;32;20257;-55
2023/09/24 05:40:59;;;;;;;3.87;2.67;;;8.30;99.90;;;;;;7301988;32;20810;-56
2023/09/24 05:45:01;;;;;;;5.57;3.28;;;8.30;99.90;;;;;;7299981;32;20170;-57
2023/09/24 05:49:04;;;;;;;5.90;3.10;;;8.40;99.90;;;;;;7286789;32;20124;-56
2023/09/24 05:53:07;;;;;;;5.72;2.90;;;8.50;99.90;;;;;;7307196;32;20403;-56
2023/09/24 05:57:10;;;;;;;8.02;3.17;;;8.50;99.90;;;;;;7301480;32;20116;-55
2023/09/24 06:01:15;;;;;;;6.12;3.00;;;8.60;99.90;;;;;;7299815;32;20297;-56
2023/09/24 06:05:17;;;;;;;7.07;3.00;;;8.70;99.90;;;;;;7302602;32;20157;-55
2023/09/24 06:09:19;;;;;;;6.25;2.87;;;8.80;99.90;;;;;;7302174;32;20126;-56
2023/09/24 06:13:21;;;;;;;9.73;3.62;;;8.80;99.90;;;;;;7299603;32;20779;-55
2023/09/24 06:17:23;;;;;;;6.05;3.22;;;8.90;99.90;;;;;;7301685;32;20223;-55
2023/09/24 06:21:25;;;;;;;8.40;3.55;;;9.00;99.90;;;;;;7298245;32;20108;-56
2023/09/24 06:25:27;;;;;;;7.40;3.28;;;9.10;99.90;;;;;;7301765;32;20199;-56
2023/09/24 06:29:29;;;;;;;9.77;3.78;;;9.20;99.90;;;;;;7312565;32;20493;-55
2023/09/24 06:33:31;;;;;;;7.03;3.60;;;9.40;99.90;;;;;;7307108;32;20502;-56
2023/09/24 06:37:33;;;;;;;5.85;3.17;;;9.60;99.90;;;;;;7302542;32;20135;-56
2023/09/24 06:41:35;;;;;;;7.87;3.25;;;9.70;99.90;;;;;;7301895;32;20135;-56
2023/09/24 06:45:37;;;;;;;6.03;3.05;;;9.80;99.90;;;;;;7302659;32;20115;-57
2023/09/24 06:49:39;;;;;;;5.25;2.42;;;10.00;99.90;;;;;;7306278;32;20167;-57
2023/09/24 06:53:40;;;;;;;5.72;2.80;;;10.10;99.90;;;;;;7303444;32;20130;-57
2023/09/24 06:57:42;;;;;;;4.78;2.60;;;10.20;99.90;;;;;;7308633;32;20107;-57
2023/09/24 07:01:44;;;;;;;5.28;2.20;;;10.30;99.90;;;;;;7306621;32;20632;-57
2023/09/24 07:05:46;;;;;;;4.15;2.45;;;10.40;99.90;;;;;;7304964;32;20251;-57
2023/09/24 07:09:48;;;;;;;5.05;2.72;;;10.50;99.90;;;;;;7308700;32;20116;-56
2023/09/24 07:13:50;;;;;;;8.85;2.33;;;10.70;99.90;;;;;;7307565;32;20593;-57
2023/09/24 07:17:52;;;;;;;5.15;1.80;;;10.70;99.90;;;;;;7308165;32;20223;-56
2023/09/24 07:21:54;;;;;;;4.65;2.12;;;10.90;99.90;;;;;;7308351;32;20111;-57
2023/09/24 07:25:56;;;;;;;6.12;2.15;;;11.00;99.90;;;;;;7309828;32;20273;-57
2023/09/24 07:29:59;;;;;;;4.47;2.05;;;11.00;99.90;;;;;;7301338;32;20226;-57
2023/09/24 07:34:01;;;;;;;6.60;2.00;;;11.20;99.90;;;;;;7296479;32;20132;-57
2023/09/24 07:38:04;;;;;;;4.03;1.67;;;11.30;99.90;;;;;;7301219;32;20207;-56
2023/09/24 07:42:07;;;;;;;5.65;1.80;;;11.40;99.90;;;;;;7291271;32;20158;-56
2023/09/24 07:46:14;;;;;;;5.60;1.73;;;11.50;99.90;;;;;;7299452;32;20560;-57
2023/09/24 07:50:16;;;;;;;6.82;2.00;;;11.60;99.90;;;;;;7300384;32;20186;-58
2023/09/24 07:54:18;;;;;;;2.67;1.80;;;11.70;99.90;;;;;;7292365;32;20215;-57
2023/09/24 07:58:20;;;;;;;6.62;1.83;;;11.80;99.90;;;;;;7295979;32;20134;-57
2023/09/24 08:02:21;;;;;;;6.00;1.70;;;12.00;99.90;;;;;;7303756;32;20207;-57
2023/09/24 08:06:23;;;;;;;5.00;1.65;;;12.10;99.90;;;;;;7306620;32;20254;-56
2023/09/24 08:10:25;;;;;;;3.03;1.40;;;12.30;99.90;;;;;;7307770;32;20142;-56
2023/09/24 08:14:27;;;;;;;17.92;11.12;;;12.40;99.90;;;;;;7307585;32;20111;-58
2023/09/24 08:18:29;;;;;;;7.03;3.05;;;12.60;99.90;;;;;;7318199;32;20532;-57
2023/09/24 08:22:31;;;;;;;4.05;1.40;;;12.80;99.90;;;;;;7305354;32;20227;-57
2023/09/24 08:26:33;;;;;;;6.03;1.35;;;13.00;99.90;;;;;;7301907;32;20246;-58
2023/09/24 08:30:36;;;;;;;4.55;1.10;;;13.10;99.90;;;;;;7300584;32;20218;-59
2023/09/24 08:34:37;;;;;;;3.78;1.45;;;13.20;99.90;;;;;;7309876;32;20219;-57
2023/09/24 08:38:39;;;;;;;2.65;1.10;;;13.50;99.90;;;;;;7291641;32;20169;-57
2023/09/24 08:42:47;;;;;;;7.97;5.20;;;13.80;99.90;;;;;;7313388;32;20510;-57
2023/09/24 08:46:50;;;;;;;3.20;1.80;;;14.10;99.90;;;;;;7318965;32;20400;-57
2023/09/24 08:50:53;;;;;;;3.47;1.67;;;14.20;99.90;;;;;;7308834;32;20360;-58
2023/09/24 08:54:55;;;;;;;3.45;1.27;;;14.30;99.90;;;;;;7310814;32;20272;-57
2023/09/24 08:58:56;;;;;;;2.90;1.20;;;14.60;99.90;;;;;;7302318;32;20187;-57
2023/09/24 09:03:04;;;;;;;1.45;0.98;;;14.60;99.90;;;;;;7309919;32;20521;-57
2023/09/24 09:07:12;;;;;;;5.62;1.25;;;14.90;99.90;;;;;;7302690;32;20108;-58
2023/09/24 09:11:13;;;;;;;2.80;1.05;;;15.30;99.90;;;;;;7309503;32;20162;-57
2023/09/24 09:15:19;;;;;;;4.85;1.10;;;15.60;99.90;;;;;;7309865;32;20510;-58
2023/09/24 09:19:21;;;;;;;4.70;1.00;;;16.10;99.90;;;;;;7293230;32;20618;-57
2023/09/24 09:23:35;;;;;;;5.25;0.90;;;16.30;99.90;;;;;;7314576;32;20447;-58
2023/09/24 09:27:43;;;;;;;2.90;0.95;;;16.90;99.90;;;;;;7297989;32;20104;-57
2023/09/24 09:31:49;;;;;;;3.87;0.82;;;17.60;99.90;;;;;;7286885;32;20450;-58
2023/09/24 09:35:51;;;;;;;4.07;0.80;;;18.80;99.90;;;;;;7304867;32;20159;-58
2023/09/24 09:39:53;;;;;;;28.23;20.23;;;19.70;99.90;;;;;;7301064;32;20455;-59
2023/09/24 09:44:00;;;;;;;4.50;1.05;;;21.20;99.90;;;;;;7299978;32;20230;-59
2023/09/24 09:48:07;;;;;;;;;;;22.30;99.90;;;;;;7300285;32;20138;-58
2023/09/24 09:52:15;;;;;;;4.90;1.00;;;23.50;99.90;;;;;;7298007;32;20282;-58
2023/09/24 09:56:19;;;;;;;2.92;0.70;;;24.00;99.90;;;;;;7305041;32;20134;-58
2023/09/24 10:00:21;;;;;;;3.15;0.80;;;24.70;99.90;;;;;;7308168;32;20282;-58
2023/09/24 10:04:23;;;;;;;4.35;1.15;;;25.00;99.90;;;;;;7299892;32;20138;-58
2023/09/24 10:08:47;;;;;;;3.15;1.10;;;25.50;99.30;;;;;;7310865;32;20288;-58
2023/09/24 10:12:49;;;;;;;2.12;0.70;;;25.50;99.00;;;;;;7301228;32;20120;-57
2023/09/24 10:16:51;;;;;;;5.03;1.02;;;25.00;96.20;;;;;;7306383;32;20323;-58
2023/09/24 10:20:59;;;;;;;3.25;0.80;;;24.70;99.10;;;;;;7309384;32;20245;-58
2023/09/24 10:25:44;;;;;;;2.15;0.70;;;24.20;99.90;;;;;;7307692;32;20237;-58
2023/09/24 10:29:46;;;;;;;3.53;0.75;;;23.70;99.90;;;;;;7305366;32;20211;-58
2023/09/24 10:33:53;;;;;;;1.62;0.65;;;22.60;99.90;;;;;;7301997;32;20223;-58
2023/09/24 10:37:58;;;;;;;3.12;0.80;;;22.00;99.90;;;;;;7304977;32;20587;-57
2023/09/24 10:42:09;;;;;;;3.55;0.85;;;21.00;99.90;;;;;;7302200;32;20166;-58
2023/09/24 10:46:27;;;;;;;3.28;0.82;;;20.20;99.90;;;;;;7304776;32;20112;-58
2023/09/24 10:50:29;;;;;;;4.57;0.88;;;19.70;99.90;;;;;;7305148;32;20304;-58
2023/09/24 10:54:30;;;;;;;2.87;1.05;;;19.20;99.90;;;;;;7306094;32;20470;-57
2023/09/24 10:58:32;;;;;;;2.45;0.80;;;18.90;99.90;;;;;;7304080;32;20119;-57
2023/09/24 11:02:35;;;;;;;3.42;0.80;;;18.60;99.90;;;;;;7307595;32;20180;-57
2023/09/24 11:06:37;;;;;;;5.25;1.10;;;18.40;99.90;;;;;;7302408;32;20124;-58
2023/09/24 11:10:39;;;;;;;3.28;0.70;;;18.20;99.90;;;;;;7302352;32;20547;-58
2023/09/24 11:14:40;;;;;;;4.37;0.80;;;18.30;99.90;;;;;;7300926;32;20134;-58
2023/09/24 11:18:48;;;;;;;3.72;0.68;;;18.60;99.90;;;;;;7301727;32;20187;-58
2023/09/24 11:23:11;;;;;;;1.30;0.45;;;19.00;99.90;;;;;;7302362;32;20188;-57
2023/09/24 11:27:13;;;;;;;2.95;0.70;;;19.60;99.90;;;;;;7304550;32;20169;-57
2023/09/24 11:31:23;;;;;;;2.60;0.60;;;20.00;99.90;;;;;;7304739;32;20507;-58
2023/09/24 11:35:25;;;;;;;1.30;0.70;;;19.90;99.90;;;;;;7302209;32;20203;-57
2023/09/24 11:39:27;;;;;;;3.65;0.70;;;19.90;99.90;;;;;;7302727;32;20253;-58
2023/09/24 11:43:29;;;;;;;3.65;0.75;;;20.00;99.90;;;;;;7302615;32;20175;-58
2023/09/24 11:47:32;;;;;;;3.15;0.65;;;20.00;99.90;;;;;;7306733;32;20200;-58
2023/09/24 11:51:35;;;;;;;3.25;0.90;;;20.20;99.90;;;;;;7298628;32;20108;-59
2023/09/24 11:55:37;;;;;;;1.52;0.50;;;20.50;99.90;;;;;;7299711;32;20111;-58
2023/09/24 11:59:39;;;;;;;1.98;0.75;;;20.30;99.90;;;;;;7298775;32;20105;-57
2023/09/24 12:03:45;;;;;;;2.72;0.85;;;19.80;99.90;;;;;;7303254;32;20265;-58
2023/09/24 12:07:49;;;;;;;1.25;0.73;;;19.90;99.90;;;;;;7306369;32;20199;-58
2023/09/24 12:11:51;;;;;;;2.85;0.85;;;19.80;99.90;;;;;;7298748;32;20147;-58
2023/09/24 12:15:53;;;;;;;3.17;0.70;;;19.70;99.90;;;;;;7294090;32;20540;-55
2023/09/24 12:19:55;;;;;;;4.32;1.70;;;19.50;99.90;;;;;;7302637;32;20116;-57
2023/09/24 12:23:56;;;;;;;2.62;0.70;;;19.30;99.90;;;;;;7307153;32;20547;-57
2023/09/24 12:27:58;;;;;;;2.22;0.90;;;19.40;99.90;;;;;;7281069;32;20128;-58
2023/09/24 12:32:00;;;;;;;3.78;0.70;;;19.30;99.90;;;;;;7288023;32;20130;-59
2023/09/24 12:36:02;;;;;;;1.87;0.60;;;19.40;99.90;;;;;;7294415;32;20141;-58
2023/09/24 12:40:07;;;;;;;2.92;0.93;;;19.40;99.90;;;;;;7293046;32;20115;-58
2023/09/24 12:44:09;;;;;;;2.28;0.62;;;19.40;99.90;;;;;;7299525;32;20116;-62
2023/09/24 12:48:10;;;;;;;2.85;0.80;;;19.60;99.90;;;;;;7305954;32;20415;-62
2023/09/24 12:52:12;;;;;;;1.73;0.65;;;19.80;99.90;;;;;;7306647;32;20168;-61
2023/09/24 12:56:14;;;;;;;2.50;0.68;;;20.00;99.90;;;;;;7295457;32;20115;-63
2023/09/24 13:00:16;;;;;;;1.83;0.65;;;20.00;99.90;;;;;;7304888;32;20694;-61
2023/09/24 13:04:18;;;;;;;3.08;0.70;;;20.00;99.90;;;;;;7302954;32;20120;-62
2023/09/24 13:08:24;;;;;;;3.03;0.60;;;20.00;99.90;;;;;;7302698;32;20259;-61
2023/09/24 13:12:26;;;;;;;1.35;0.70;;;20.10;99.90;;;;;;7301782;32;20163;-61
2023/09/24 13:16:27;;;;;;;2.47;0.70;;;20.10;99.90;;;;;;7309234;32;20104;-61
2023/09/24 13:20:30;;;;;;;1.70;0.60;;;20.10;99.90;;;;;;7304253;32;20129;-62
2023/09/24 13:24:32;;;;;;;1.77;0.60;;;20.20;99.90;;;;;;7306662;32;20124;-61
2023/09/24 13:28:34;;;;;;;2.55;0.68;;;20.20;99.90;;;;;;7301350;32;20897;-62
2023/09/24 13:32:35;;;;;;;1.25;0.50;;;20.20;99.90;;;;;;7306796;32;20192;-61
2023/09/24 13:36:38;;;;;;;2.33;1.00;;;20.10;99.90;;;;;;7303938;32;20268;-62
2023/09/24 13:40:40;;;;;;;1.83;0.52;;;20.10;99.90;;;;;;7297272;32;20104;-62
2023/09/24 13:44:42;;;;;;;1.05;0.47;;;20.00;99.90;;;;;;7296547;32;20218;-61
2023/09/24 13:48:44;;;;;;;3.67;0.70;;;20.10;99.90;;;;;;7298547;32;20198;-61
2023/09/24 13:52:47;;;;;;;2.25;0.60;;;20.10;99.20;;;;;;7299161;32;20187;-63
2023/09/24 13:56:49;;;;;;;2.35;0.45;;;20.20;97.60;;;;;;7280887;32;20501;-61
2023/09/24 14:00:54;;;;;;;1.95;0.75;;;20.00;98.40;;;;;;7296700;32;20181;-61
2023/09/24 14:04:56;;;;;;;1.55;0.40;;;20.10;99.10;;;;;;7276613;32;20606;-61
2023/09/24 14:13:19;;;;;;;2.58;0.70;;;20.00;99.90;;;;;;7295189;32;20111;-57
2023/09/24 14:17:21;;;;;;;1.75;0.70;;;20.10;99.40;;;;;;7301099;32;20116;-56
2023/09/24 14:21:23;;;;;;;1.42;0.60;;;20.40;99.90;;;;;;7289591;32;20111;-57
2023/09/24 14:25:24;;;;;;;2.03;0.60;;;20.60;99.90;;;;;;7301896;32;20112;-57
2023/09/24 14:29:26;;;;;;;4.50;0.80;;;20.70;99.90;;;;;;7302334;32;20213;-57
2023/09/24 14:33:29;;;;;;;3.30;0.68;;;20.70;99.70;;;;;;7301306;32;20122;-57
2023/09/24 14:37:31;;;;;;;2.37;0.82;;;20.80;99.50;;;;;;7306413;32;20115;-57
2023/09/24 14:41:33;;;;;;;2.35;0.60;;;20.70;97.80;;;;;;7304115;32;20512;-57
2023/09/24 14:45:37;;;;;;;3.35;0.77;;;20.50;98.20;;;;;;7300828;32;20338;-57
2023/09/24 14:49:39;;;;;;;1.12;0.50;;;20.30;98.70;;;;;;7307407;32;20139;-56
2023/09/24 14:53:41;;;;;;;1.50;0.68;;;19.90;98.60;;;;;;7310236;32;20142;-57
2023/09/24 14:57:43;;;;;;;1.27;0.62;;;19.90;99.90;;;;;;7306885;32;20111;-58
2023/09/24 15:01:44;;;;;;;1.42;0.57;;;19.80;99.90;;;;;;7305893;32;20112;-57
2023/09/24 15:05:46;;;;;;;1.77;0.65;;;19.80;99.90;;;;;;7307147;32;20947;-56
2023/09/24 15:09:48;;;;;;;2.17;0.62;;;19.60;99.90;;;;;;7306746;32;20115;-56
2023/09/24 15:13:50;;;;;;;3.05;0.60;;;19.40;99.90;;;;;;7309161;32;20103;-55
2023/09/24 15:17:52;;;;;;;2.25;0.68;;;19.40;99.90;;;;;;7314862;32;20477;-55
2023/09/24 15:21:53;;;;;;;2.03;0.60;;;19.40;99.90;;;;;;7300251;32;20179;-56
2023/09/24 15:25:55;;;;;;;1.48;0.62;;;19.40;99.90;;;;;;7307626;32;20195;-56
2023/09/24 15:29:58;;;;;;;1.25;0.70;;;19.40;99.90;;;;;;7300732;32;20213;-56
2023/09/24 15:34:00;;;;;;;10.18;7.47;;;19.10;99.90;;;;;;7298403;32;20122;-57
2023/09/24 15:38:05;;;;;;;1.50;0.73;;;19.10;99.90;;;;;;7299179;32;20130;-57
2023/09/24 15:42:07;;;;;;;1.75;0.70;;;19.00;99.90;;;;;;7299782;32;20571;-57
2023/09/24 15:46:16;;;;;;;1.08;0.40;;;19.00;99.90;;;;;;7287705;32;20750;-56
2023/09/24 15:50:18;;;;;;;1.75;0.37;;;18.90;99.90;;;;;;7294007;32;20143;-57
2023/09/24 15:54:19;;;;;;;1.75;0.62;;;18.70;99.90;;;;;;7295054;32;20479;-56
2023/09/24 15:58:21;;;;;;;1.12;0.50;;;18.80;99.90;;;;;;7299142;32;20150;-56
2023/09/24 16:02:23;;;;;;;1.90;0.52;;;18.70;99.90;;;;;;7298580;32;20104;-56
2023/09/24 16:06:25;;;;;;;1.45;0.47;;;18.50;99.90;;;;;;7298232;32;20155;-57
2023/09/24 16:10:27;;;;;;;1.70;0.70;;;18.50;99.90;;;;;;7294412;32;20826;-57
2023/09/24 16:14:30;;;;;;;1.67;0.70;;;18.40;99.90;;;;;;7298014;32;20249;-57
2023/09/24 16:18:32;;;;;;;1.87;0.40;;;18.30;99.90;;;;;;7309768;32;20164;-56
2023/09/24 16:22:34;;;;;;;1.17;0.40;;;18.10;99.90;;;;;;7295986;32;20130;-57
2023/09/24 16:26:36;;;;;;;1.02;0.40;;;18.10;99.90;;;;;;7309275;32;20326;-56
2023/09/24 16:30:39;;;;;;;2.10;0.90;;;18.00;99.90;;;;;;7281275;32;20112;-56
2023/09/24 16:34:41;;;;;;;1.33;0.50;;;17.90;99.90;;;;;;7294473;32;20167;-56
2023/09/24 16:38:43;;;;;;;1.37;0.60;;;17.90;99.90;;;;;;7297812;32;20111;-56
2023/09/24 16:42:49;;;;;;;1.85;0.50;;;17.70;99.90;;;;;;7296564;32;20177;-58
2023/09/24 16:46:50;;;;;;;1.00;0.57;;;17.60;99.90;;;;;;7293337;32;20124;-57
2023/09/24 16:50:53;;;;;;;1.37;0.52;;;17.50;99.90;;;;;;7305159;32;20103;-57
2023/09/24 16:54:55;;;;;;;2.85;1.27;;;17.40;99.90;;;;;;7300768;32;20130;-57
2023/09/24 16:58:57;;;;;;;3.62;1.00;;;17.30;99.90;;;;;;7295621;32;20271;-57
2023/09/24 17:02:59;;;;;;;2.33;0.80;;;17.00;99.90;;;;;;7297272;32;20150;-56
2023/09/24 17:07:01;;;;;;;1.85;0.60;;;16.90;99.90;;;;;;7302600;32;21321;-56
2023/09/24 17:11:02;;;;;;;2.78;1.00;;;16.80;99.90;;;;;;7295205;32;20533;-57
2023/09/24 17:15:05;;;;;;;3.37;0.70;;;16.80;99.90;;;;;;7301226;32;20111;-56
2023/09/24 17:19:07;;;;;;;1.90;0.68;;;16.60;99.90;;;;;;7300470;32;20289;-56
2023/09/24 17:23:09;;;;;;;1.87;0.62;;;16.50;99.90;;;;;;7298059;32;20316;-56
2023/09/24 17:27:10;;;;;;;2.62;0.98;;;16.40;99.90;;;;;;7297033;32;20427;-56
2023/09/24 17:31:13;;;;;;;2.25;0.90;;;16.20;99.90;;;;;;7298670;32;20243;-57
2023/09/24 17:35:14;;;;;;;3.22;0.95;;;16.00;99.90;;;;;;7296882;32;20112;-57
2023/09/24 17:39:16;;;;;;;2.45;0.80;;;15.80;99.90;;;;;;7296604;32;20502;-56
2023/09/24 17:43:18;;;;;;;3.28;0.90;;;15.70;99.90;;;;;;7301794;32;20231;-55
2023/09/24 17:47:20;;;;;;;2.80;1.02;;;15.60;99.90;;;;;;7299944;32;20136;-55
2023/09/24 17:51:22;;;;;;;2.17;0.93;;;15.40;99.90;;;;;;7294171;32;20560;-56
2023/09/24 17:55:23;;;;;;;3.60;1.00;;;15.30;99.90;;;;;;7285443;32;20232;-56
2023/09/24 17:59:28;;;;;;;2.95;1.37;;;15.10;99.90;;;;;;7306697;32;20108;-56
2023/09/24 18:03:30;;;;;;;1.52;0.85;;;14.90;99.90;;;;;;7304946;32;20179;-56
2023/09/24 18:07:32;;;;;;;2.72;1.05;;;14.70;99.90;;;;;;7292592;32;20646;-57
2023/09/24 18:11:34;;;;;;;4.30;0.90;;;14.60;99.90;;;;;;7298934;32;20108;-56
2023/09/24 18:15:36;;;;;;;2.25;0.80;;;14.50;99.90;;;;;;7301252;32;20120;-57
2023/09/24 18:19:38;;;;;;;1.98;1.10;;;14.30;99.90;;;;;;7302265;32;20455;-56
2023/09/24 18:23:40;;;;;;;3.80;0.93;;;14.30;99.90;;;;;;7302884;32;20698;-55
2023/09/24 18:27:41;;;;;;;2.97;1.00;;;14.20;99.90;;;;;;7310682;32;20203;-56
2023/09/24 18:31:43;;;;;;;3.20;1.08;;;14.10;99.90;;;;;;7304608;32;20112;-56
2023/09/24 18:35:45;;;;;;;2.10;1.00;;;14.10;99.90;;;;;;7302001;32;20131;-57
2023/09/24 18:39:47;;;;;;;3.47;1.20;;;14.10;99.90;;;;;;7310308;32;20210;-56
2023/09/24 18:43:49;;;;;;;2.08;0.90;;;14.10;99.90;;;;;;7290465;32;20138;-57
2023/09/24 18:47:51;;;;;;;3.50;1.00;;;14.10;99.90;;;;;;7304710;32;20158;-57
2023/09/24 18:51:53;;;;;;;2.05;1.00;;;14.20;99.90;;;;;;7303777;32;20130;-56
2023/09/24 18:56:04;;;;;;;2.40;1.00;;;14.10;99.90;;;;;;7294439;32;20159;-56
2023/09/24 19:00:11;;;;;;;2.62;1.10;;;14.20;99.90;;;;;;7302724;32;20207;-56
2023/09/24 19:04:13;;;;;;;2.15;1.00;;;14.30;99.90;;;;;;7300309;32;20163;-56
2023/09/24 19:08:15;;;;;;;2.12;0.90;;;14.30;99.90;;;;;;7302275;32;20170;-55
2023/09/24 19:12:16;;;;;;;4.53;1.10;;;14.30;99.90;;;;;;7303902;32;20171;-56
2023/09/24 19:16:18;;;;;;;1.33;0.57;;;14.30;99.90;;;;;;7303223;32;20172;-57
2023/09/24 19:20:20;;;;;;;2.03;0.80;;;14.30;99.90;;;;;;7293239;32;20138;-56
2023/09/24 19:24:22;;;;;;;2.20;1.00;;;14.30;99.90;;;;;;7306685;32;20112;-56
2023/09/24 19:28:24;;;;;;;2.22;0.90;;;14.30;99.90;;;;;;7303963;32;20107;-56
2023/09/24 19:32:26;;;;;;;2.58;0.90;;;14.40;99.90;;;;;;7295061;32;20219;-57
2023/09/24 19:36:28;;;;;;;2.50;0.80;;;14.40;99.90;;;;;;7301005;32;20186;-55
2023/09/24 19:40:30;;;;;;;1.70;0.75;;;14.30;99.90;;;;;;7302049;32;20134;-56
2023/09/24 19:44:32;;;;;;;1.92;0.70;;;14.30;99.90;;;;;;7298182;32;20262;-55
2023/09/24 19:48:36;;;;;;;4.97;0.98;;;14.20;99.90;;;;;;7301351;32;20165;-55
2023/09/24 19:52:38;;;;;;;6.47;1.02;;;14.20;99.90;;;;;;7299679;32;20143;-56
2023/09/24 19:56:40;;;;;;;2.67;0.62;;;14.30;99.90;;;;;;7300011;32;20250;-57
2023/09/24 20:00:42;;;;;;;3.03;0.80;;;14.20;99.90;;;;;;7301218;32;20130;-56
2023/09/24 20:04:44;;;;;;;2.80;1.00;;;14.20;99.90;;;;;;7303964;32;20112;-57
2023/09/24 20:08:51;;;;;;;3.45;0.93;;;14.10;99.90;;;;;;7306775;32;20107;-56
2023/09/24 20:12:54;;;;;;;4.18;0.90;;;14.00;99.90;;;;;;7302998;32;20112;-56
2023/09/24 20:16:56;;;;;;;1.52;0.70;;;14.00;99.90;;;;;;7299258;32;20326;-56
2023/09/24 20:20:58;;;;;;;4.70;0.70;;;14.00;99.90;;;;;;7302605;32;20294;-57
2023/09/24 20:25:09;;;;;;;3.22;0.73;;;14.00;99.90;;;;;;7299796;32;20246;-56
2023/09/24 20:29:12;;;;;;;2.85;0.90;;;14.00;99.90;;;;;;7301759;32;20104;-57
2023/09/24 20:33:15;;;;;;;3.83;0.90;;;14.00;99.90;;;;;;7301197;32;20154;-57
2023/09/24 20:37:31;;;;;;;1.48;0.80;;;14.00;99.90;;;;;;7302519;32;20253;-56
2023/09/24 20:41:37;;;;;;;1.52;0.60;;;14.00;99.90;;;;;;7306651;32;20122;-57
2023/09/24 20:45:54;;;;;;;2.53;0.95;;;14.00;99.90;;;;;;7301771;32;20159;-56
2023/09/24 20:49:56;;;;;;;1.92;1.10;;;14.00;99.90;;;;;;7302624;32;20130;-56
2023/09/24 20:53:58;;;;;;;2.60;0.80;;;14.00;99.90;;;;;;7302600;32;20283;-55
2023/09/24 20:58:00;;;;;;;2.42;0.90;;;14.00;99.90;;;;;;7300048;32;20161;-57
2023/09/24 21:02:02;;;;;;;1.10;0.60;;;14.00;99.90;;;;;;7298970;32;20124;-55
2023/09/24 21:06:05;;;;;;;1.25;0.55;;;14.00;99.90;;;;;;7303069;32;20193;-57
2023/09/24 21:10:07;;;;;;;2.35;1.00;;;13.90;99.90;;;;;;7308362;32;20495;-55
2023/09/24 21:14:09;;;;;;;2.15;0.80;;;13.90;99.90;;;;;;7300667;32;20533;-56